Time;durP1;ratioP1;P1;durP2;ratioP2;P2;SDS_P1;SDS_P2;PMS_P1;PMS_P2;Temp;Humidity;BMP_temperature;BMP_pressure;BME280_temperature;BME280_humidity;BME280_pressure;Samples;Min_cycle;Max_cycle;Signal;HPM_P1;HPM_P2
2022/05/06 00:01:35;;;;;;;68.32;51.88;;;;;;;;;;4994534;28;20046;-80
2022/05/06 00:04:00;;;;;;;67.22;51.00;;;;;;;;;;5027067;28;20037;-80
2022/05/06 00:06:28;;;;;;;64.93;47.92;;;;;;;;;;4994591;28;20034;-79
2022/05/06 00:08:53;;;;;;;70.05;48.88;;;;;;;;;;4994832;28;20052;-81
2022/05/06 00:11:18;;;;;;;64.78;47.00;;;;;;;;;;5010862;28;20489;-82
2022/05/06 00:13:44;;;;;;;63.10;46.88;;;;;;;;;;5026921;28;20038;-82
2022/05/06 00:16:09;;;;;;;56.17;41.55;;;;;;;;;;4977981;28;20042;-81
2022/05/06 00:18:35;;;;;;;56.72;40.35;;;;;;;;;;4994253;28;20053;-81
2022/05/06 00:21:00;;;;;;;50.20;37.05;;;;;;;;;;5010177;28;20052;-82
2022/05/06 00:23:26;;;;;;;45.33;33.17;;;;;;;;;;5011034;28;20403;-81
2022/05/06 00:25:51;;;;;;;50.80;35.65;;;;;;;;;;4994417;28;20046;-81
2022/05/06 00:28:17;;;;;;;44.53;34.13;;;;;;;;;;4993651;28;20106;-81
2022/05/06 00:30:42;;;;;;;42.47;31.80;;;;;;;;;;4977877;28;20519;-82
2022/05/06 00:33:09;;;;;;;41.15;30.33;;;;;;;;;;4994236;28;20046;-81
2022/05/06 00:35:38;;;;;;;40.03;30.10;;;;;;;;;;5011197;28;20049;-82
2022/05/06 00:38:04;;;;;;;39.28;28.95;;;;;;;;;;5010557;28;20038;-82
2022/05/06 00:40:29;;;;;;;37.20;28.40;;;;;;;;;;5006712;28;20050;-82
2022/05/06 00:42:56;;;;;;;36.33;27.42;;;;;;;;;;4991195;28;20141;-81
2022/05/06 00:45:22;;;;;;;33.45;25.52;;;;;;;;;;5023307;28;20046;-82
2022/05/06 00:47:48;;;;;;;35.05;24.05;;;;;;;;;;4993520;28;20034;-81
2022/05/06 00:50:13;;;;;;;33.05;24.27;;;;;;;;;;5010370;28;20042;-82
2022/05/06 00:52:39;;;;;;;30.83;22.98;;;;;;;;;;5010585;28;20117;-82
2022/05/06 00:55:04;;;;;;;30.05;22.25;;;;;;;;;;4977926;28;20036;-82
2022/05/06 00:57:30;;;;;;;27.92;22.95;;;;;;;;;;5010376;28;20433;-81
2022/05/06 01:02:39;;;;;;;32.35;23.45;;;;;;;;;;5032101;28;20034;-82
2022/05/06 01:05:05;;;;;;;30.25;21.42;;;;;;;;;;5013415;28;20118;-81
2022/05/06 01:07:30;;;;;;;24.05;19.00;;;;;;;;;;4981230;28;20436;-81
2022/05/06 01:09:56;;;;;;;24.27;19.33;;;;;;;;;;4980779;28;20403;-81
2022/05/06 01:12:21;;;;;;;25.30;18.77;;;;;;;;;;4997140;28;20038;-82
2022/05/06 01:14:47;;;;;;;22.80;17.20;;;;;;;;;;4978267;28;20029;-82
2022/05/06 01:17:13;;;;;;;23.80;18.30;;;;;;;;;;4993435;28;20076;-81
2022/05/06 01:19:39;;;;;;;23.38;17.70;;;;;;;;;;4993934;28;20060;-81
2022/05/06 01:22:04;;;;;;;25.13;18.33;;;;;;;;;;4994192;28;20070;-81
2022/05/06 01:24:31;;;;;;;22.23;16.50;;;;;;;;;;4977549;28;20053;-80
2022/05/06 01:27:04;;;;;;;20.35;15.63;;;;;;;;;;4994071;28;20066;-81
2022/05/06 01:29:31;;;;;;;19.17;14.88;;;;;;;;;;4993494;28;20030;-80
2022/05/06 01:31:56;;;;;;;18.77;14.75;;;;;;;;;;5011512;28;20022;-81
2022/05/06 01:34:23;;;;;;;17.95;15.07;;;;;;;;;;5013769;28;20099;-81
2022/05/06 01:36:50;;;;;;;18.73;14.60;;;;;;;;;;4997339;28;20030;-80
2022/05/06 01:39:18;;;;;;;18.88;14.88;;;;;;;;;;4980660;28;20026;-80
2022/05/06 01:41:44;;;;;;;15.65;12.35;;;;;;;;;;4980950;28;20060;-80
2022/05/06 01:44:09;;;;;;;16.70;13.30;;;;;;;;;;5030196;28;20128;-81
2022/05/06 01:46:36;;;;;;;18.98;13.43;;;;;;;;;;5013569;28;20037;-80
2022/05/06 01:49:02;;;;;;;16.13;12.98;;;;;;;;;;5013248;28;20048;-80
2022/05/06 01:51:27;;;;;;;18.23;13.30;;;;;;;;;;5013265;28;20117;-81
2022/05/06 01:53:53;;;;;;;16.98;12.75;;;;;;;;;;5029999;28;20065;-81
2022/05/06 01:56:19;;;;;;;16.77;11.95;;;;;;;;;;5013013;28;20030;-81
2022/05/06 01:58:44;;;;;;;16.92;12.23;;;;;;;;;;5013099;28;20514;-80
2022/05/06 02:01:11;;;;;;;15.43;11.43;;;;;;;;;;5046209;28;20026;-81
2022/05/06 02:06:21;;;;;;;13.57;10.75;;;;;;;;;;5032224;28;20373;-81
2022/05/06 02:08:46;;;;;;;15.77;11.48;;;;;;;;;;4996400;28;20038;-81
2022/05/06 02:11:12;;;;;;;13.02;10.88;;;;;;;;;;4980413;28;20100;-81
2022/05/06 02:13:37;;;;;;;14.95;11.27;;;;;;;;;;5029005;28;20120;-80
2022/05/06 02:16:03;;;;;;;14.10;11.15;;;;;;;;;;4980406;28;20030;-81
2022/05/06 02:18:29;;;;;;;14.82;10.40;;;;;;;;;;5013081;28;20112;-81
2022/05/06 02:20:57;;;;;;;13.63;10.43;;;;;;;;;;5012957;28;20551;-81
2022/05/06 02:23:23;;;;;;;12.93;9.32;;;;;;;;;;4996401;28;20036;-81
2022/05/06 02:25:50;;;;;;;12.18;9.70;;;;;;;;;;4996295;28;20042;-81
2022/05/06 02:28:16;;;;;;;12.90;10.00;;;;;;;;;;4996393;28;20065;-80
2022/05/06 02:33:26;;;;;;;10.80;8.68;;;;;;;;;;4998653;28;20034;-81
2022/05/06 02:35:52;;;;;;;12.00;8.95;;;;;;;;;;4997397;28;20104;-81
2022/05/06 02:38:18;;;;;;;11.50;8.75;;;;;;;;;;4993155;28;20133;-81
2022/05/06 02:40:43;;;;;;;10.90;8.98;;;;;;;;;;4990726;28;20026;-81
2022/05/06 02:43:09;;;;;;;12.00;8.63;;;;;;;;;;4978956;28;20052;-81
2022/05/06 02:45:34;;;;;;;12.52;9.25;;;;;;;;;;4979842;28;20033;-81
2022/05/06 02:48:00;;;;;;;10.55;7.90;;;;;;;;;;4995497;28;20065;-80
2022/05/06 02:50:25;;;;;;;10.20;7.43;;;;;;;;;;4995911;28;20073;-80
2022/05/06 02:52:51;;;;;;;10.07;7.43;;;;;;;;;;4979991;28;20099;-81
2022/05/06 02:55:17;;;;;;;9.32;7.53;;;;;;;;;;4992596;28;20030;-80
2022/05/06 02:57:42;;;;;;;11.38;7.80;;;;;;;;;;5008917;28;20552;-81
2022/05/06 03:00:08;;;;;;;9.23;7.50;;;;;;;;;;5008837;28;20515;-80
2022/05/06 03:02:33;;;;;;;9.85;7.18;;;;;;;;;;5008344;28;20420;-80
2022/05/06 03:04:59;;;;;;;8.52;6.93;;;;;;;;;;5008683;28;20065;-81
2022/05/06 03:07:25;;;;;;;9.23;6.85;;;;;;;;;;5008773;28;20135;-81
2022/05/06 03:09:52;;;;;;;9.90;7.80;;;;;;;;;;5026755;28;20045;-81
2022/05/06 03:12:23;;;;;;;9.07;6.95;;;;;;;;;;5010560;28;20548;-80
2022/05/06 03:14:48;;;;;;;9.82;7.63;;;;;;;;;;5027765;28;20026;-80
2022/05/06 03:17:13;;;;;;;10.13;7.28;;;;;;;;;;5011198;28;20049;-80
2022/05/06 03:19:39;;;;;;;10.20;7.13;;;;;;;;;;5011059;28;20128;-80
2022/05/06 03:22:05;;;;;;;8.57;6.55;;;;;;;;;;4979148;28;20093;-80
2022/05/06 03:24:30;;;;;;;8.95;7.15;;;;;;;;;;4995303;28;20064;-80
2022/05/06 03:26:56;;;;;;;10.00;7.47;;;;;;;;;;5011361;28;20034;-80
2022/05/06 03:29:21;;;;;;;11.50;8.43;;;;;;;;;;5010968;28;20041;-80
2022/05/06 03:31:47;;;;;;;8.10;6.80;;;;;;;;;;4994129;28;20038;-80
2022/05/06 03:34:12;;;;;;;10.02;6.90;;;;;;;;;;4995159;28;20432;-81
2022/05/06 03:36:38;;;;;;;9.40;6.38;;;;;;;;;;4995297;28;20033;-81
2022/05/06 03:39:04;;;;;;;9.20;7.07;;;;;;;;;;4993678;28;20041;-80
2022/05/06 03:41:29;;;;;;;9.20;7.05;;;;;;;;;;4994648;28;20042;-81
2022/05/06 03:43:55;;;;;;;9.10;6.82;;;;;;;;;;4994881;28;20026;-80
2022/05/06 03:46:20;;;;;;;8.57;6.32;;;;;;;;;;4994737;28;20121;-80
2022/05/06 03:48:46;;;;;;;8.82;7.22;;;;;;;;;;4978580;28;20038;-80
2022/05/06 03:51:23;;;;;;;11.75;8.20;;;;;;;;;;4994678;28;20058;-80
2022/05/06 03:53:53;;;;;;;10.27;7.68;;;;;;;;;;4982073;28;20069;-81
2022/05/06 03:56:19;;;;;;;10.05;7.40;;;;;;;;;;5007774;28;20038;-80
2022/05/06 03:58:45;;;;;;;11.45;7.57;;;;;;;;;;5007875;28;20126;-81
2022/05/06 04:01:10;;;;;;;11.57;7.43;;;;;;;;;;4991632;28;20117;-80
2022/05/06 04:03:36;;;;;;;9.80;7.50;;;;;;;;;;5010910;28;20042;-80
2022/05/06 04:06:02;;;;;;;11.00;7.45;;;;;;;;;;5010888;28;20065;-81
2022/05/06 04:08:27;;;;;;;11.57;8.43;;;;;;;;;;5027319;28;20559;-80
2022/05/06 04:10:53;;;;;;;11.00;8.25;;;;;;;;;;5010625;28;20492;-80
2022/05/06 04:13:19;;;;;;;10.82;8.00;;;;;;;;;;5007322;28;20693;-80
2022/05/06 04:15:48;;;;;;;11.18;7.82;;;;;;;;;;4978380;28;20060;-80
2022/05/06 04:18:13;;;;;;;11.57;8.75;;;;;;;;;;5010480;28;20034;-81
2022/05/06 04:23:29;;;;;;;11.50;8.50;;;;;;;;;;5010698;28;20034;-80
2022/05/06 04:25:58;;;;;;;11.52;8.63;;;;;;;;;;4995421;28;20048;-80
2022/05/06 04:28:24;;;;;;;11.32;7.70;;;;;;;;;;4994997;28;20088;-81
2022/05/06 04:30:52;;;;;;;12.52;7.78;;;;;;;;;;5011015;28;20034;-80
2022/05/06 04:33:18;;;;;;;9.30;7.45;;;;;;;;;;4978425;28;20026;-81
2022/05/06 04:35:44;;;;;;;11.43;7.63;;;;;;;;;;4994592;28;20034;-80
2022/05/06 04:38:11;;;;;;;10.65;7.85;;;;;;;;;;4977889;28;20116;-79
2022/05/06 04:40:37;;;;;;;13.35;8.73;;;;;;;;;;4977879;28;20026;-79
2022/05/06 04:43:03;;;;;;;13.35;9.38;;;;;;;;;;4994621;28;20041;-79
2022/05/06 04:45:29;;;;;;;11.07;8.30;;;;;;;;;;4978276;28;20045;-79
2022/05/06 04:47:54;;;;;;;13.23;8.95;;;;;;;;;;4994136;28;20034;-79
2022/05/06 04:50:21;;;;;;;10.63;7.60;;;;;;;;;;4994391;28;20417;-79
2022/05/06 04:52:46;;;;;;;11.55;8.27;;;;;;;;;;4978185;28;20095;-79
2022/05/06 04:55:12;;;;;;;9.50;7.25;;;;;;;;;;4994273;28;20053;-78
2022/05/06 04:57:37;;;;;;;11.85;8.13;;;;;;;;;;5026699;28;20100;-79
2022/05/06 05:00:06;;;;;;;12.88;9.30;;;;;;;;;;4994178;28;20042;-79
2022/05/06 05:02:32;;;;;;;13.40;8.48;;;;;;;;;;5026949;28;20041;-79
2022/05/06 05:04:58;;;;;;;11.10;8.52;;;;;;;;;;5026924;28;20112;-78
2022/05/06 05:07:24;;;;;;;11.15;7.65;;;;;;;;;;5012361;28;20069;-78
2022/05/06 05:09:50;;;;;;;12.50;8.80;;;;;;;;;;5014070;28;20124;-78
2022/05/06 05:12:15;;;;;;;13.27;9.55;;;;;;;;;;5030510;28;20450;-79
2022/05/06 05:14:43;;;;;;;14.20;9.60;;;;;;;;;;5030643;28;20459;-79
2022/05/06 05:17:09;;;;;;;11.88;7.63;;;;;;;;;;4997751;28;20056;-79
2022/05/06 05:19:36;;;;;;;11.05;8.40;;;;;;;;;;5014059;28;20507;-79
2022/05/06 05:22:01;;;;;;;11.10;7.68;;;;;;;;;;4997384;28;20030;-79
2022/05/06 05:24:26;;;;;;;12.15;8.98;;;;;;;;;;5013966;28;20076;-79
2022/05/06 05:26:54;;;;;;;11.75;8.13;;;;;;;;;;4997189;28;20053;-79
2022/05/06 05:29:19;;;;;;;13.10;9.43;;;;;;;;;;5013858;28;20227;-78
2022/05/06 05:31:45;;;;;;;11.30;8.02;;;;;;;;;;4997505;28;20509;-79
2022/05/06 05:34:10;;;;;;;11.15;8.20;;;;;;;;;;5014011;28;20550;-79
2022/05/06 05:36:35;;;;;;;11.13;8.38;;;;;;;;;;4996906;28;20041;-79
2022/05/06 05:39:01;;;;;;;14.02;8.57;;;;;;;;;;4997146;28;20041;-79
2022/05/06 05:41:27;;;;;;;10.80;8.02;;;;;;;;;;4981006;28;20088;-80
2022/05/06 05:49:20;;;;;;;12.95;8.10;;;;;;;;;;4999142;28;20129;-79
2022/05/06 05:51:45;;;;;;;11.70;8.02;;;;;;;;;;4981092;28;20148;-79
2022/05/06 05:54:11;;;;;;;12.35;8.30;;;;;;;;;;4981018;28;20052;-79
2022/05/06 05:56:37;;;;;;;12.35;8.70;;;;;;;;;;4981106;28;20038;-79
2022/05/06 05:59:02;;;;;;;13.68;8.95;;;;;;;;;;5029642;28;20116;-79
2022/05/06 06:01:29;;;;;;;12.07;9.45;;;;;;;;;;5018607;28;20042;-79
2022/05/06 06:03:55;;;;;;;11.50;8.43;;;;;;;;;;4989608;28;20141;-79
2022/05/06 06:06:20;;;;;;;14.32;9.70;;;;;;;;;;4992807;28;20517;-79
2022/05/06 06:08:46;;;;;;;10.55;8.48;;;;;;;;;;4976977;28;20038;-79
2022/05/06 06:11:11;;;;;;;12.10;8.43;;;;;;;;;;4993176;28;20097;-79
2022/05/06 06:13:37;;;;;;;10.35;8.00;;;;;;;;;;5001861;28;20049;-79
2022/05/06 06:16:02;;;;;;;10.50;8.48;;;;;;;;;;4996688;28;20440;-79
2022/05/06 06:18:28;;;;;;;13.43;9.45;;;;;;;;;;5010493;28;20038;-79
2022/05/06 06:20:54;;;;;;;11.48;8.48;;;;;;;;;;5012721;28;20034;-79
2022/05/06 06:23:20;;;;;;;12.38;8.25;;;;;;;;;;5012199;28;20041;-79
2022/05/06 06:25:46;;;;;;;10.50;8.70;;;;;;;;;;4979340;28;20165;-79
2022/05/06 06:28:11;;;;;;;11.10;8.63;;;;;;;;;;5011975;28;20393;-79
2022/05/06 06:30:37;;;;;;;11.98;8.38;;;;;;;;;;5012449;28;20037;-78
2022/05/06 06:33:03;;;;;;;9.82;8.25;;;;;;;;;;5012090;28;20067;-79
2022/05/06 06:35:28;;;;;;;12.60;8.55;;;;;;;;;;4996190;28;20157;-79
2022/05/06 06:37:54;;;;;;;11.57;9.07;;;;;;;;;;4995485;28;20061;-78
2022/05/06 06:40:19;;;;;;;10.48;8.18;;;;;;;;;;4996095;28;20607;-79
2022/05/06 06:42:46;;;;;;;11.07;8.60;;;;;;;;;;4995655;28;20033;-79
2022/05/06 06:45:11;;;;;;;11.35;7.93;;;;;;;;;;4996144;28;20033;-79
2022/05/06 06:47:37;;;;;;;11.13;8.48;;;;;;;;;;4979750;28;20381;-79
2022/05/06 06:50:03;;;;;;;12.27;8.88;;;;;;;;;;4979860;28;20049;-79
2022/05/06 06:52:28;;;;;;;10.77;8.90;;;;;;;;;;4980037;28;20038;-79
2022/05/06 06:54:54;;;;;;;12.10;8.48;;;;;;;;;;4979618;28;20129;-78
2022/05/06 06:57:19;;;;;;;11.00;8.32;;;;;;;;;;4996130;28;20064;-79
2022/05/06 06:59:45;;;;;;;12.27;8.52;;;;;;;;;;5011928;28;20088;-79
2022/05/06 07:02:10;;;;;;;10.93;8.32;;;;;;;;;;4995715;28;20112;-79
2022/05/06 07:04:36;;;;;;;12.00;8.77;;;;;;;;;;5028560;28;20046;-79
2022/05/06 07:12:29;;;;;;;12.20;8.00;;;;;;;;;;5025834;28;20109;-79
2022/05/06 07:14:57;;;;;;;10.98;8.20;;;;;;;;;;4979540;28;20060;-79
2022/05/06 07:17:23;;;;;;;10.88;7.65;;;;;;;;;;4995761;28;20100;-79
2022/05/06 07:19:48;;;;;;;10.50;8.43;;;;;;;;;;4979295;28;20033;-79
2022/05/06 07:22:14;;;;;;;10.20;8.65;;;;;;;;;;5012239;28;20037;-79
2022/05/06 07:24:39;;;;;;;10.93;9.25;;;;;;;;;;4995458;28;20432;-79
2022/05/06 07:27:06;;;;;;;9.73;7.53;;;;;;;;;;4995015;28;20527;-79
2022/05/06 07:29:31;;;;;;;9.70;8.55;;;;;;;;;;4979223;28;20400;-79
2022/05/06 07:31:57;;;;;;;10.55;7.47;;;;;;;;;;4994918;28;20034;-79
2022/05/06 07:34:22;;;;;;;10.13;7.80;;;;;;;;;;5011596;28;20412;-79
2022/05/06 07:36:48;;;;;;;9.15;7.30;;;;;;;;;;4994984;28;20052;-78
2022/05/06 07:39:14;;;;;;;9.63;7.90;;;;;;;;;;4994790;28;20179;-79
2022/05/06 07:41:40;;;;;;;9.23;6.85;;;;;;;;;;4978879;28;20037;-79
2022/05/06 07:44:06;;;;;;;10.32;7.63;;;;;;;;;;4978997;28;20091;-78
2022/05/06 07:46:32;;;;;;;9.55;7.82;;;;;;;;;;5010741;28;20037;-78
2022/05/06 07:48:57;;;;;;;9.13;7.22;;;;;;;;;;4978791;28;20459;-78
2022/05/06 07:51:23;;;;;;;8.93;7.05;;;;;;;;;;4978676;28;20041;-79
2022/05/06 07:53:51;;;;;;;9.93;7.70;;;;;;;;;;4978771;28;20034;-79
2022/05/06 07:56:18;;;;;;;9.80;7.63;;;;;;;;;;4979062;28;20041;-79
2022/05/06 07:58:43;;;;;;;11.27;7.88;;;;;;;;;;5027600;28;20412;-79
2022/05/06 08:01:11;;;;;;;10.70;7.93;;;;;;;;;;5027183;28;20405;-79
2022/05/06 08:06:20;;;;;;;9.45;7.07;;;;;;;;;;5025271;28;20117;-78
2022/05/06 08:08:46;;;;;;;10.60;7.55;;;;;;;;;;5027297;28;20176;-78
2022/05/06 08:11:11;;;;;;;11.90;8.00;;;;;;;;;;5027056;28;20389;-79
2022/05/06 08:13:36;;;;;;;11.40;7.82;;;;;;;;;;5027490;28;20038;-78
2022/05/06 08:16:02;;;;;;;10.02;8.07;;;;;;;;;;4978008;28;20419;-79
2022/05/06 08:18:28;;;;;;;10.98;8.65;;;;;;;;;;4978554;28;20037;-79
2022/05/06 08:20:53;;;;;;;10.20;7.68;;;;;;;;;;4994506;28;20576;-78
2022/05/06 08:23:22;;;;;;;9.93;7.60;;;;;;;;;;4978687;28;20030;-79
2022/05/06 08:25:48;;;;;;;11.43;8.48;;;;;;;;;;4994876;28;20030;-79
2022/05/06 08:28:14;;;;;;;10.35;8.43;;;;;;;;;;4978326;28;20057;-79
2022/05/06 08:30:39;;;;;;;10.23;7.40;;;;;;;;;;5010226;28;20092;-79
2022/05/06 08:33:05;;;;;;;10.25;8.38;;;;;;;;;;4994470;28;20033;-78
2022/05/06 08:35:31;;;;;;;10.48;7.70;;;;;;;;;;5011327;28;20045;-78
2022/05/06 08:37:58;;;;;;;10.77;8.07;;;;;;;;;;5010473;28;20030;-79
2022/05/06 08:40:29;;;;;;;10.20;8.15;;;;;;;;;;4978180;28;20076;-79
2022/05/06 08:42:54;;;;;;;11.18;8.18;;;;;;;;;;4998083;28;20030;-79
2022/05/06 08:50:53;;;;;;;12.63;9.05;;;;;;;;;;5002960;28;20037;-78
2022/05/06 08:53:23;;;;;;;12.00;9.05;;;;;;;;;;4998654;28;20053;-79
2022/05/06 08:55:52;;;;;;;10.43;8.35;;;;;;;;;;4998156;28;20034;-79
2022/05/06 08:58:18;;;;;;;10.63;9.00;;;;;;;;;;5031216;28;20026;-79
2022/05/06 09:00:44;;;;;;;9.32;7.65;;;;;;;;;;5014168;28;20033;-79
2022/05/06 09:03:10;;;;;;;12.38;8.63;;;;;;;;;;5030618;28;20105;-79
2022/05/06 09:05:58;;;;;;;11.27;8.77;;;;;;;;;;5030842;28;20041;-78
2022/05/06 09:08:42;;;;;;;10.98;7.95;;;;;;;;;;5014848;28;20034;-79
2022/05/06 09:11:08;;;;;;;13.55;9.45;;;;;;;;;;5028827;28;20080;-78
2022/05/06 09:14:00;;;;;;;13.30;10.07;;;;;;;;;;5019607;28;20042;-78
2022/05/06 09:16:42;;;;;;;13.48;10.38;;;;;;;;;;5013634;28;20049;-79
2022/05/06 09:19:17;;;;;;;14.20;10.77;;;;;;;;;;5014099;28;20141;-79
2022/05/06 09:22:18;;;;;;;14.55;11.13;;;;;;;;;;5030652;28;20041;-80
2022/05/06 09:24:47;;;;;;;15.45;11.80;;;;;;;;;;5012694;28;20092;-79
2022/05/06 09:27:16;;;;;;;17.98;14.07;;;;;;;;;;5009766;28;20112;-79
2022/05/06 09:29:47;;;;;;;18.73;15.05;;;;;;;;;;5013699;28;20055;-79
2022/05/06 09:32:16;;;;;;;18.17;14.88;;;;;;;;;;5030448;28;20219;-78
2022/05/06 09:34:42;;;;;;;18.42;14.77;;;;;;;;;;5047496;28;20116;-78
2022/05/06 09:37:07;;;;;;;17.55;15.02;;;;;;;;;;5030229;28;20076;-79
2022/05/06 09:39:32;;;;;;;17.38;14.63;;;;;;;;;;5013536;28;20041;-78
2022/05/06 09:42:04;;;;;;;19.05;13.95;;;;;;;;;;4980572;28;20109;-79
2022/05/06 09:44:29;;;;;;;16.98;14.15;;;;;;;;;;4981214;28;20030;-78
2022/05/06 09:47:15;;;;;;;17.77;13.93;;;;;;;;;;5013914;28;20037;-78
2022/05/06 09:49:43;;;;;;;16.77;13.45;;;;;;;;;;4981460;28;20076;-79
2022/05/06 09:52:10;;;;;;;15.55;12.82;;;;;;;;;;4996843;28;20033;-79
2022/05/06 09:54:35;;;;;;;16.98;13.50;;;;;;;;;;4997193;28;20104;-78
2022/05/06 09:57:04;;;;;;;15.73;12.93;;;;;;;;;;4996581;28;20504;-79
2022/05/06 09:59:30;;;;;;;15.48;12.20;;;;;;;;;;5029732;28;20034;-78
2022/05/06 10:01:56;;;;;;;16.38;12.73;;;;;;;;;;5030007;28;20404;-79
2022/05/06 10:04:21;;;;;;;14.73;11.45;;;;;;;;;;5029486;28;20500;-78
2022/05/06 10:06:46;;;;;;;15.57;12.75;;;;;;;;;;5013090;28;20408;-78
2022/05/06 10:09:12;;;;;;;13.05;11.18;;;;;;;;;;5029284;28;20826;-79
2022/05/06 10:11:40;;;;;;;14.05;11.77;;;;;;;;;;5029088;28;20037;-79
2022/05/06 10:14:06;;;;;;;15.70;12.85;;;;;;;;;;5029521;28;20465;-79
2022/05/06 10:16:35;;;;;;;14.05;11.82;;;;;;;;;;4996725;28;20404;-78
2022/05/06 10:19:01;;;;;;;13.20;11.50;;;;;;;;;;5013005;28;20068;-79
2022/05/06 10:21:46;;;;;;;13.88;11.07;;;;;;;;;;4996762;28;20532;-79
2022/05/06 10:24:17;;;;;;;14.13;9.90;;;;;;;;;;4996569;28;20030;-79
2022/05/06 10:26:47;;;;;;;12.02;10.07;;;;;;;;;;5012435;28;20037;-79
2022/05/06 10:35:08;;;;;;;12.73;10.27;;;;;;;;;;5012528;28;20447;-79
2022/05/06 10:37:38;;;;;;;11.90;9.38;;;;;;;;;;5012981;28;20036;-79
2022/05/06 10:40:23;;;;;;;11.90;10.48;;;;;;;;;;5012485;28;20045;-78
2022/05/06 10:42:49;;;;;;;12.60;11.00;;;;;;;;;;5013503;28;20034;-79
2022/05/06 10:45:30;;;;;;;13.80;10.00;;;;;;;;;;4980177;28;20492;-79
2022/05/06 10:47:55;;;;;;;11.63;9.73;;;;;;;;;;4996763;28;20048;-78
2022/05/06 10:50:23;;;;;;;11.63;9.93;;;;;;;;;;4995966;28;20042;-79
2022/05/06 10:52:49;;;;;;;10.32;9.23;;;;;;;;;;4980623;28;20411;-78
2022/05/06 10:55:16;;;;;;;10.98;9.82;;;;;;;;;;4995608;28;20065;-79
2022/05/06 10:57:52;;;;;;;11.20;9.15;;;;;;;;;;5012339;28;20038;-79
2022/05/06 11:00:18;;;;;;;10.27;8.52;;;;;;;;;;5029274;28;20512;-78
2022/05/06 11:02:43;;;;;;;10.25;8.65;;;;;;;;;;5028764;28;20115;-78
2022/05/06 11:05:14;;;;;;;10.52;8.75;;;;;;;;;;5027732;28;20396;-78
2022/05/06 11:07:41;;;;;;;10.00;8.55;;;;;;;;;;5012125;28;20041;-79
2022/05/06 11:10:13;;;;;;;10.02;8.52;;;;;;;;;;5028026;28;20488;-79
2022/05/06 11:12:42;;;;;;;9.82;8.25;;;;;;;;;;5011359;28;20412;-78
2022/05/06 11:15:10;;;;;;;9.02;8.05;;;;;;;;;;4979077;28;20044;-78
2022/05/06 11:17:36;;;;;;;8.80;7.90;;;;;;;;;;5011880;28;20038;-79
2022/05/06 11:20:29;;;;;;;8.98;7.70;;;;;;;;;;4979609;28;20026;-79
2022/05/06 11:23:04;;;;;;;9.52;7.95;;;;;;;;;;5011706;28;20080;-79
2022/05/06 11:25:31;;;;;;;11.27;8.85;;;;;;;;;;5011877;28;20041;-78
2022/05/06 11:27:59;;;;;;;9.55;8.55;;;;;;;;;;4995754;28;20041;-79
2022/05/06 11:30:25;;;;;;;8.68;7.55;;;;;;;;;;4978720;28;20088;-78
2022/05/06 11:32:56;;;;;;;10.18;7.82;;;;;;;;;;4995102;28;20065;-79
2022/05/06 11:35:28;;;;;;;8.77;7.40;;;;;;;;;;4978963;28;20075;-79
2022/05/06 11:37:53;;;;;;;;;;;;;;;;;;4979361;28;20033;-79
2022/05/06 11:42:48;;;;;;;10.57;8.32;;;;;;;;;;5008043;28;20452;-79
2022/05/06 11:48:05;;;;;;;7.75;6.95;;;;;;;;;;5010500;28;20035;-79
2022/05/06 11:50:33;;;;;;;7.25;6.50;;;;;;;;;;5008314;28;20067;-79
2022/05/06 11:52:59;;;;;;;7.70;6.68;;;;;;;;;;4991385;28;20512;-79
2022/05/06 11:55:24;;;;;;;8.15;6.53;;;;;;;;;;4992841;28;20030;-79
2022/05/06 11:57:50;;;;;;;9.00;7.65;;;;;;;;;;4991507;28;20057;-79
2022/05/06 12:00:16;;;;;;;7.82;7.03;;;;;;;;;;4975168;28;20073;-79
2022/05/06 12:02:51;;;;;;;8.32;7.35;;;;;;;;;;5007753;28;20421;-79
2022/05/06 12:05:16;;;;;;;8.15;7.00;;;;;;;;;;4975714;28;20497;-79
2022/05/06 12:07:47;;;;;;;8.30;6.97;;;;;;;;;;4959029;28;20105;-79
2022/05/06 12:10:26;;;;;;;8.48;7.50;;;;;;;;;;4974881;28;20045;-79
2022/05/06 12:12:56;;;;;;;8.43;6.78;;;;;;;;;;4962439;28;20405;-79
2022/05/06 12:15:32;;;;;;;7.20;6.47;;;;;;;;;;4994349;28;20042;-79
2022/05/06 12:18:09;;;;;;;8.43;6.90;;;;;;;;;;4994383;28;20042;-79
2022/05/06 12:20:36;;;;;;;7.40;6.32;;;;;;;;;;5011206;28;20035;-79
2022/05/06 12:23:02;;;;;;;7.18;6.10;;;;;;;;;;4994442;28;20111;-79
2022/05/06 12:25:27;;;;;;;7.40;6.53;;;;;;;;;;4978244;28;20121;-79
2022/05/06 12:28:23;;;;;;;6.50;5.82;;;;;;;;;;4994395;28;20030;-79
2022/05/06 12:30:59;;;;;;;8.35;6.45;;;;;;;;;;5010857;28;20046;-79
2022/05/06 12:33:37;;;;;;;7.30;6.60;;;;;;;;;;4994410;28;20500;-79
2022/05/06 12:36:04;;;;;;;7.55;6.70;;;;;;;;;;5010430;28;20476;-79
2022/05/06 12:38:48;;;;;;;7.65;6.32;;;;;;;;;;4978049;28;20496;-79
2022/05/06 12:41:23;;;;;;;7.85;6.18;;;;;;;;;;4993846;28;20139;-79
2022/05/06 12:43:49;;;;;;;7.53;5.60;;;;;;;;;;4993989;28;20120;-79
2022/05/06 12:46:31;;;;;;;7.25;6.25;;;;;;;;;;4994567;28;20135;-79
2022/05/06 12:51:42;;;;;;;7.07;6.30;;;;;;;;;;4998974;28;20485;-79
2022/05/06 12:54:09;;;;;;;7.22;5.80;;;;;;;;;;4978305;28;20053;-79
2022/05/06 12:56:35;;;;;;;6.35;5.63;;;;;;;;;;4962018;28;20868;-80
2022/05/06 12:59:00;;;;;;;6.30;5.63;;;;;;;;;;5010753;28;20042;-79
2022/05/06 13:01:26;;;;;;;6.68;5.32;;;;;;;;;;5026877;28;20104;-80
2022/05/06 13:03:51;;;;;;;6.70;5.80;;;;;;;;;;5010458;28;20029;-80
2022/05/06 13:06:16;;;;;;;5.40;4.82;;;;;;;;;;5026341;28;20048;-79
2022/05/06 13:08:42;;;;;;;6.20;5.30;;;;;;;;;;5010513;28;20037;-79
2022/05/06 13:11:07;;;;;;;6.07;5.00;;;;;;;;;;5026185;28;20137;-79
2022/05/06 13:13:33;;;;;;;7.10;5.45;;;;;;;;;;5026528;28;20046;-79
2022/05/06 13:15:59;;;;;;;6.18;5.15;;;;;;;;;;4994275;28;20038;-79
2022/05/06 13:18:25;;;;;;;5.75;4.82;;;;;;;;;;4993989;28;20038;-79
2022/05/06 13:20:50;;;;;;;6.25;5.40;;;;;;;;;;5010327;28;20045;-79
2022/05/06 13:23:16;;;;;;;6.00;4.93;;;;;;;;;;4993704;28;20113;-79
2022/05/06 13:25:42;;;;;;;6.35;5.70;;;;;;;;;;4977702;28;20038;-79
2022/05/06 13:28:07;;;;;;;5.10;4.57;;;;;;;;;;4995353;28;20034;-79
2022/05/06 13:30:33;;;;;;;6.50;5.55;;;;;;;;;;4981231;28;20037;-79
2022/05/06 13:32:59;;;;;;;6.72;5.22;;;;;;;;;;4981456;28;20511;-79
2022/05/06 13:35:28;;;;;;;6.30;5.03;;;;;;;;;;4997180;28;20880;-79
2022/05/06 13:37:53;;;;;;;5.45;4.53;;;;;;;;;;5013596;28;20068;-79
2022/05/06 13:40:19;;;;;;;5.82;4.75;;;;;;;;;;5013287;28;20038;-79
2022/05/06 13:42:44;;;;;;;6.60;4.70;;;;;;;;;;4997141;28;20915;-79
2022/05/06 13:45:10;;;;;;;4.93;4.32;;;;;;;;;;4981068;28;20064;-79
2022/05/06 13:47:35;;;;;;;7.35;4.93;;;;;;;;;;4996991;28;20393;-79
2022/05/06 13:50:01;;;;;;;5.05;4.43;;;;;;;;;;4997243;28;20096;-79
2022/05/06 13:52:28;;;;;;;5.35;4.38;;;;;;;;;;4997144;28;20034;-79
2022/05/06 13:54:54;;;;;;;5.15;4.18;;;;;;;;;;4997152;28;20132;-79
2022/05/06 14:00:04;;;;;;;5.30;4.38;;;;;;;;;;4999749;28;20069;-80
2022/05/06 14:02:30;;;;;;;5.70;4.85;;;;;;;;;;5029686;28;20030;-79
2022/05/06 14:04:55;;;;;;;5.68;4.95;;;;;;;;;;5029956;28;20117;-80
2022/05/06 14:07:21;;;;;;;4.32;3.92;;;;;;;;;;5029508;28;20374;-79
2022/05/06 14:09:46;;;;;;;4.10;3.70;;;;;;;;;;5013039;28;20392;-80
2022/05/06 14:12:12;;;;;;;4.65;4.10;;;;;;;;;;5029365;28;20026;-80
2022/05/06 14:14:37;;;;;;;4.13;3.72;;;;;;;;;;5029582;28;20034;-79
2022/05/06 14:17:03;;;;;;;5.00;4.28;;;;;;;;;;4968400;28;20149;-80
2022/05/06 14:19:28;;;;;;;5.13;3.90;;;;;;;;;;4992354;28;20133;-79
2022/05/06 14:21:54;;;;;;;4.63;3.55;;;;;;;;;;4975969;28;20034;-79
2022/05/06 14:24:19;;;;;;;4.07;3.28;;;;;;;;;;4992600;28;20793;-80
2022/05/06 14:26:44;;;;;;;4.38;3.60;;;;;;;;;;4976192;28;20108;-79
2022/05/06 14:29:11;;;;;;;3.58;3.22;;;;;;;;;;4993070;28;20030;-79
2022/05/06 14:31:36;;;;;;;4.88;3.90;;;;;;;;;;4992827;28;20022;-79
2022/05/06 14:34:02;;;;;;;5.40;3.50;;;;;;;;;;4993328;28;20149;-79
2022/05/06 14:36:27;;;;;;;4.57;3.72;;;;;;;;;;4992884;28;20088;-79
2022/05/06 14:38:53;;;;;;;4.32;3.65;;;;;;;;;;4975977;28;20038;-79
2022/05/06 14:41:18;;;;;;;4.25;3.72;;;;;;;;;;4991614;28;20031;-79
2022/05/06 14:43:44;;;;;;;4.57;3.92;;;;;;;;;;4992027;28;20492;-79
2022/05/06 14:46:09;;;;;;;4.88;3.55;;;;;;;;;;4992572;28;20452;-79
2022/05/06 14:48:35;;;;;;;3.80;3.30;;;;;;;;;;5009088;28;20074;-79
2022/05/06 14:51:00;;;;;;;4.78;3.45;;;;;;;;;;4992313;28;20038;-79
2022/05/06 14:53:26;;;;;;;4.07;3.35;;;;;;;;;;5008911;28;20129;-80
2022/05/06 14:55:53;;;;;;;4.35;3.45;;;;;;;;;;5007723;28;20113;-80
2022/05/06 14:58:18;;;;;;;4.63;3.80;;;;;;;;;;4998800;28;20116;-79
2022/05/06 15:00:44;;;;;;;4.30;3.10;;;;;;;;;;5030618;28;20546;-79
2022/05/06 15:03:09;;;;;;;4.47;3.13;;;;;;;;;;5022126;28;20045;-79
2022/05/06 15:05:34;;;;;;;4.30;3.22;;;;;;;;;;5011927;28;20122;-79
2022/05/06 15:08:00;;;;;;;4.78;4.10;;;;;;;;;;5028894;28;20050;-79
2022/05/06 15:10:26;;;;;;;3.83;2.55;;;;;;;;;;5011524;28;20538;-79
2022/05/06 15:12:51;;;;;;;3.70;3.28;;;;;;;;;;5028498;28;20026;-79
2022/05/06 15:15:17;;;;;;;4.30;2.90;;;;;;;;;;4995201;28;20038;-79
2022/05/06 15:17:42;;;;;;;4.22;3.25;;;;;;;;;;4995575;28;20405;-80